createdAt,value
2018-11-20T00:00:02.495Z,-0.30
2018-11-20T00:03:05.053Z,-0.20
2018-11-20T00:06:05.094Z,-0.10
2018-11-20T00:09:05.265Z,0.10
2018-11-20T00:12:05.595Z,-0.20
2018-11-20T00:15:05.472Z,-0.20
2018-11-20T00:18:06.162Z,-0.20
2018-11-20T00:24:09.209Z,0.00
2018-11-20T00:27:09.068Z,-0.30
2018-11-20T00:30:09.143Z,-0.40
2018-11-20T00:33:09.332Z,-0.30
2018-11-20T00:36:09.552Z,-0.40
2018-11-20T00:39:02.356Z,-0.10
2018-11-20T00:42:02.332Z,-0.40
2018-11-20T00:44:56.105Z,-0.30
2018-11-20T00:47:59.280Z,-0.30
2018-11-20T00:51:05.231Z,-0.30
2018-11-20T00:54:01.187Z,-0.20
2018-11-20T00:57:00.904Z,-0.20
2018-11-20T01:00:00.529Z,-0.20
2018-11-20T01:08:57.106Z,-0.30
2018-11-20T01:14:59.968Z,-0.20
2018-11-20T01:17:59.422Z,0.00
2018-11-20T01:21:05.349Z,0.00
2018-11-20T01:24:07.525Z,-0.10
2018-11-20T01:26:55.509Z,-0.10
2018-11-20T01:29:56.239Z,-0.10
2018-11-20T01:36:03.488Z,-0.10
2018-11-20T01:39:03.605Z,-0.10
2018-11-20T01:42:03.925Z,0.00
2018-11-20T01:45:07.129Z,-0.10
2018-11-20T01:48:07.129Z,-0.10
2018-11-20T01:51:07.227Z,-0.10
2018-11-20T01:54:07.190Z,-0.20
2018-11-20T01:57:07.569Z,-0.20
2018-11-20T02:00:01.425Z,-0.30
2018-11-20T02:02:54.353Z,-0.20
2018-11-20T02:08:58.087Z,0.10
2018-11-20T02:12:03.691Z,0.10
2018-11-20T02:15:03.972Z,0.00
2018-11-20T02:18:03.986Z,0.20
2018-11-20T02:21:03.895Z,0.10
2018-11-20T02:24:03.838Z,0.10
2018-11-20T02:30:06.886Z,0.10
2018-11-20T02:33:06.853Z,0.20
2018-11-20T02:36:06.963Z,0.40
2018-11-20T02:39:09.168Z,0.30
2018-11-20T02:42:09.009Z,0.20
2018-11-20T02:45:11.561Z,0.30
2018-11-20T02:51:15.016Z,0.40
2018-11-20T02:54:14.876Z,0.60
2018-11-20T02:57:14.825Z,0.60
2018-11-20T03:03:14.835Z,0.50
2018-11-20T03:06:09.655Z,0.40
2018-11-20T03:09:09.828Z,0.30
2018-11-20T03:12:09.702Z,0.30
2018-11-20T03:18:12.373Z,0.20
2018-11-20T03:21:12.995Z,0.30
2018-11-20T03:24:12.171Z,0.40
2018-11-20T03:27:18.503Z,0.40
2018-11-20T03:33:22.102Z,0.40
2018-11-20T03:36:25.066Z,0.40
2018-11-20T03:39:24.924Z,0.30
2018-11-20T03:42:24.854Z,0.30
2018-11-20T03:45:24.739Z,0.40
2018-11-20T03:48:24.736Z,0.40
2018-11-20T03:51:27.486Z,0.60
2018-11-20T03:54:27.352Z,0.60
2018-11-20T03:57:17.658Z,0.50
2018-11-20T04:00:17.909Z,0.70
2018-11-20T04:03:17.695Z,0.70
2018-11-20T04:06:17.896Z,0.60
2018-11-20T04:09:18.493Z,0.60
2018-11-20T04:12:21.090Z,0.60
2018-11-20T04:15:21.125Z,0.60
2018-11-20T04:18:21.237Z,0.50
2018-11-20T04:21:20.667Z,0.80
2018-11-20T04:27:15.527Z,0.80
2018-11-20T04:33:19.102Z,0.80
2018-11-20T04:36:16.904Z,0.90
2018-11-20T04:39:06.651Z,1.00
2018-11-20T04:42:07.359Z,0.80
2018-11-20T04:45:09.858Z,0.70
2018-11-20T04:51:13.579Z,0.70
2018-11-20T04:54:13.498Z,0.60
2018-11-20T04:57:13.472Z,0.70
2018-11-20T05:00:19.540Z,0.90
2018-11-20T05:03:19.405Z,0.80
2018-11-20T05:09:21.940Z,0.70
2018-11-20T05:15:25.275Z,0.80
2018-11-20T05:21:28.652Z,0.80
2018-11-20T05:24:28.482Z,0.80
2018-11-20T05:27:28.399Z,1.00
2018-11-20T05:30:34.092Z,1.00
2018-11-20T05:33:26.010Z,1.00
2018-11-20T05:36:26.503Z,0.80
2018-11-20T05:39:26.579Z,0.70
2018-11-20T05:42:26.553Z,0.80
2018-11-20T05:45:21.717Z,0.90
2018-11-20T05:48:21.555Z,1.00
2018-11-20T05:51:21.659Z,0.90
2018-11-20T05:54:21.781Z,0.90
2018-11-20T05:57:22.583Z,0.80
2018-11-20T06:03:26.071Z,0.90
2018-11-20T06:06:26.232Z,0.90
2018-11-20T06:09:24.973Z,1.00
2018-11-20T06:12:24.463Z,1.00
2018-11-20T06:15:24.632Z,1.10
2018-11-20T06:18:24.675Z,1.10
2018-11-20T06:21:24.958Z,1.20
2018-11-20T06:24:30.654Z,1.30
2018-11-20T06:27:30.852Z,1.10
2018-11-20T06:30:33.596Z,1.20
2018-11-20T06:33:32.673Z,1.30
2018-11-20T06:36:33.472Z,1.40
2018-11-20T06:39:33.479Z,1.50
2018-11-20T06:42:33.671Z,1.70
2018-11-20T06:45:31.940Z,2.00
2018-11-20T06:51:32.458Z,1.70
2018-11-20T06:54:30.869Z,1.70
2018-11-20T06:57:30.814Z,1.80
2018-11-20T07:00:30.908Z,1.70
2018-11-20T07:06:36.432Z,1.80
2018-11-20T07:09:42.163Z,1.70
2018-11-20T07:12:34.042Z,1.80
2018-11-20T07:15:34.457Z,1.80
2018-11-20T07:21:36.955Z,1.70
2018-11-20T07:24:40.285Z,1.70
2018-11-20T07:27:38.765Z,2.00
2018-11-20T07:33:42.685Z,1.70
2018-11-20T07:36:43.509Z,1.60
2018-11-20T07:39:43.294Z,1.70
2018-11-20T07:42:43.264Z,1.90
2018-11-20T07:45:43.104Z,2.10
2018-11-20T07:48:49.230Z,2.40
2018-11-20T07:51:49.057Z,2.40
2018-11-20T07:54:48.913Z,2.50
2018-11-20T07:57:51.893Z,2.70
2018-11-20T08:00:52.489Z,3.20
2018-11-20T08:03:52.720Z,2.80
2018-11-20T08:06:53.061Z,2.30
2018-11-20T08:09:55.704Z,2.20
2018-11-20T08:13:02.100Z,2.50
2018-11-20T08:16:02.968Z,3.10
2018-11-20T08:19:03.541Z,3.90
2018-11-20T08:22:09.375Z,4.20
2018-11-20T08:25:02.560Z,4.70
2018-11-20T08:28:05.215Z,4.90
2018-11-20T08:31:05.561Z,4.20
2018-11-20T08:34:08.826Z,4.50
2018-11-20T08:37:11.844Z,4.40
2018-11-20T08:40:12.009Z,3.70
2018-11-20T08:43:17.386Z,3.20
2018-11-20T08:46:17.625Z,3.50
2018-11-20T08:49:18.198Z,3.50
2018-11-20T08:55:27.157Z,4.30
2018-11-20T08:58:27.448Z,3.80
2018-11-20T09:01:27.226Z,3.90
2018-11-20T09:04:27.221Z,4.00
2018-11-20T09:07:26.696Z,4.00
2018-11-20T09:10:26.546Z,4.60
2018-11-20T09:16:28.846Z,4.90
2018-11-20T09:19:31.186Z,5.20
2018-11-20T09:22:31.529Z,6.20
2018-11-20T09:25:23.193Z,5.90
2018-11-20T09:28:23.802Z,6.10
2018-11-20T09:31:23.347Z,6.00
2018-11-20T09:34:29.827Z,6.60
2018-11-20T09:37:30.281Z,7.10
2018-11-20T09:40:30.575Z,7.00
2018-11-20T09:43:31.290Z,6.50
2018-11-20T09:46:31.567Z,6.20
2018-11-20T09:52:35.029Z,7.50
2018-11-20T09:58:37.687Z,6.70
2018-11-20T10:01:37.910Z,7.10
2018-11-20T10:07:41.472Z,6.60
2018-11-20T10:10:44.139Z,6.90
2018-11-20T10:13:44.846Z,7.10
2018-11-20T10:16:44.403Z,7.70
2018-11-20T10:19:44.440Z,7.70
2018-11-20T10:22:40.404Z,6.80
2018-11-20T10:25:40.517Z,6.70
2018-11-20T10:28:42.993Z,6.30
2018-11-20T10:31:42.940Z,6.60
2018-11-20T10:34:38.941Z,6.90
2018-11-20T10:37:42.130Z,7.00
2018-11-20T10:40:42.092Z,7.30
2018-11-20T10:43:41.866Z,8.10
2018-11-20T10:46:41.860Z,9.10
2018-11-20T10:49:42.115Z,9.30
2018-11-20T10:52:42.936Z,9.90
2018-11-20T10:55:48.392Z,10.60
2018-11-20T10:58:48.245Z,11.40
2018-11-20T11:01:48.211Z,10.80
2018-11-20T11:04:48.457Z,10.90
2018-11-20T11:07:37.087Z,11.20
2018-11-20T11:10:37.796Z,10.70
2018-11-20T11:13:38.411Z,10.80
2018-11-20T11:16:39.058Z,11.30
2018-11-20T11:19:38.978Z,10.00
2018-11-20T11:22:39.473Z,10.50
2018-11-20T11:25:39.375Z,10.50
2018-11-20T11:28:33.074Z,10.70
2018-11-20T11:31:29.329Z,10.00
2018-11-20T11:34:29.619Z,9.70
2018-11-20T11:37:29.950Z,9.40
2018-11-20T11:40:20.980Z,9.20
2018-11-20T11:46:24.542Z,9.80
2018-11-20T11:49:27.042Z,10.60
2018-11-20T11:52:32.608Z,11.10
2018-11-20T11:55:32.843Z,10.40
2018-11-20T11:58:33.173Z,9.70
2018-11-20T12:04:27.946Z,8.70
2018-11-20T12:07:30.547Z,8.30
2018-11-20T12:13:34.286Z,7.60
2018-11-20T12:16:34.788Z,7.30
2018-11-20T12:19:34.800Z,7.30
2018-11-20T12:22:34.763Z,6.80
2018-11-20T12:25:34.724Z,7.00
2018-11-20T12:28:34.729Z,7.00
2018-11-20T12:34:37.546Z,7.00
2018-11-20T12:40:38.904Z,6.90
2018-11-20T12:43:42.229Z,7.00
2018-11-20T12:46:47.940Z,6.80
2018-11-20T12:49:49.701Z,7.10
2018-11-20T12:52:48.183Z,7.20
2018-11-20T12:55:38.791Z,7.30
2018-11-20T13:01:40.707Z,7.10
2018-11-20T13:04:40.550Z,7.40
2018-11-20T13:07:44.824Z,7.00
2018-11-20T13:10:45.175Z,6.90
2018-11-20T13:13:45.000Z,6.80
2018-11-20T13:16:45.009Z,6.60
2018-11-20T13:19:45.183Z,6.70
2018-11-20T13:22:45.865Z,6.80
2018-11-20T13:25:45.869Z,6.90
2018-11-20T13:28:48.465Z,6.70
2018-11-20T13:31:54.566Z,7.10
2018-11-20T13:34:43.354Z,6.70
2018-11-20T13:40:52.004Z,6.70
2018-11-20T13:43:47.816Z,6.60
2018-11-20T13:46:51.417Z,6.70
2018-11-20T13:49:57.116Z,6.80
2018-11-20T13:52:56.877Z,6.60
2018-11-20T13:56:02.989Z,6.80
2018-11-20T14:02:11.680Z,6.70
2018-11-20T14:05:12.445Z,6.70
2018-11-20T14:08:12.276Z,6.60
2018-11-20T14:11:12.393Z,6.80
2018-11-20T14:14:12.428Z,6.50
2018-11-20T14:17:12.766Z,6.50
2018-11-20T14:23:15.759Z,6.60
2018-11-20T14:26:21.495Z,6.50
2018-11-20T14:29:22.104Z,6.40
2018-11-20T14:32:21.768Z,6.60
2018-11-20T14:35:19.194Z,6.40
2018-11-20T14:38:22.263Z,6.30
2018-11-20T14:41:22.058Z,6.20
2018-11-20T14:44:22.017Z,6.30
2018-11-20T14:47:24.631Z,6.20
2018-11-20T14:50:11.906Z,6.30
2018-11-20T14:53:04.932Z,6.40
2018-11-20T14:56:07.273Z,6.30
2018-11-20T14:59:08.250Z,6.30
2018-11-20T15:02:00.587Z,6.10
2018-11-20T15:05:01.092Z,6.10
2018-11-20T15:08:01.962Z,6.00
2018-11-20T15:11:02.468Z,6.20
2018-11-20T15:13:59.234Z,6.30
2018-11-20T15:16:59.392Z,6.10
2018-11-20T15:19:59.592Z,5.90
2018-11-20T15:22:56.509Z,5.70
2018-11-20T15:26:03.997Z,5.70
2018-11-20T15:28:58.976Z,5.70
2018-11-20T15:31:54.949Z,5.60
2018-11-20T15:34:50.331Z,5.60
2018-11-20T15:40:53.543Z,5.30
2018-11-20T15:43:53.641Z,5.30
2018-11-20T15:46:47.807Z,5.20
2018-11-20T15:49:47.629Z,5.00
2018-11-20T15:52:55.935Z,4.90
2018-11-20T15:55:55.781Z,4.80
2018-11-20T15:58:55.872Z,4.90
2018-11-20T16:01:55.842Z,4.70
2018-11-20T16:05:41.134Z,4.70
2018-11-20T16:11:37.790Z,4.60
2018-11-20T16:14:37.484Z,4.60
2018-11-20T16:20:41.228Z,4.40
2018-11-20T16:23:41.277Z,4.40
2018-11-20T16:26:42.018Z,4.30
2018-11-20T16:29:41.799Z,4.30
2018-11-20T16:32:42.273Z,4.30
2018-11-20T16:35:42.138Z,4.20
2018-11-20T16:38:42.381Z,4.30
2018-11-20T16:41:42.384Z,4.20
2018-11-20T16:44:42.334Z,4.10
2018-11-20T16:47:42.119Z,4.00
2018-11-20T16:50:45.393Z,3.90
2018-11-20T16:53:45.342Z,3.80
2018-11-20T16:56:45.318Z,3.90
2018-11-20T16:59:47.785Z,3.80
2018-11-20T17:02:47.647Z,3.80
2018-11-20T17:05:47.837Z,3.70
2018-11-20T17:08:48.095Z,3.60
2018-11-20T17:11:48.021Z,3.70
2018-11-20T17:14:47.929Z,3.70
2018-11-20T17:17:47.476Z,3.70
2018-11-20T17:20:53.384Z,3.80
2018-11-20T17:23:53.603Z,3.70
2018-11-20T17:29:56.959Z,3.60
2018-11-20T17:33:02.500Z,3.50
2018-11-20T17:36:02.503Z,3.50
2018-11-20T17:41:37.541Z,3.40
2018-11-20T17:44:38.137Z,3.40
2018-11-20T17:47:38.058Z,3.50
2018-11-20T17:50:41.141Z,3.40
2018-11-20T17:53:41.302Z,3.30
2018-11-20T17:56:44.113Z,3.30
2018-11-20T17:59:47.469Z,3.30
2018-11-20T18:02:48.421Z,3.30
2018-11-20T18:08:54.582Z,3.30
2018-11-20T18:11:45.768Z,3.20
2018-11-20T18:17:50.806Z,3.20
2018-11-20T18:20:56.711Z,3.10
2018-11-20T18:23:56.603Z,3.00
2018-11-20T18:30:00.144Z,3.10
2018-11-20T18:32:59.993Z,3.00
2018-11-20T18:36:03.103Z,3.00
2018-11-20T18:39:03.149Z,2.80
2018-11-20T18:42:03.113Z,2.90
2018-11-20T18:45:03.726Z,2.70
2018-11-20T18:48:03.682Z,2.80
2018-11-20T18:51:03.704Z,2.70
2018-11-20T18:57:07.005Z,2.80
2018-11-20T19:00:02.680Z,2.60
2018-11-20T19:03:02.457Z,2.60
2018-11-20T19:06:05.485Z,2.70
2018-11-20T19:09:05.385Z,2.50
2018-11-20T19:12:08.242Z,2.50
2018-11-20T19:15:08.840Z,2.50
2018-11-20T19:18:09.698Z,2.50
2018-11-20T19:27:09.244Z,2.40
2018-11-20T19:30:09.151Z,2.20
2018-11-20T19:33:08.992Z,1.90
2018-11-20T19:36:12.134Z,2.00
2018-11-20T19:39:12.166Z,2.10
2018-11-20T19:42:12.840Z,1.70
2018-11-20T19:45:12.976Z,1.70
2018-11-20T19:48:13.446Z,1.70
2018-11-20T19:51:10.458Z,1.70
2018-11-20T19:54:05.353Z,1.60
2018-11-20T19:57:05.174Z,1.70
2018-11-20T20:00:05.183Z,1.60
2018-11-20T20:03:05.505Z,1.60
2018-11-20T20:06:11.584Z,1.80
2018-11-20T20:09:11.625Z,1.80
2018-11-20T20:12:11.753Z,1.70
2018-11-20T20:15:11.652Z,1.70
2018-11-20T20:18:11.501Z,1.80
2018-11-20T20:21:05.506Z,2.00
2018-11-20T20:24:05.482Z,2.20
2018-11-20T20:27:05.602Z,2.30
2018-11-20T20:30:05.817Z,2.40
2018-11-20T20:33:03.727Z,2.40
2018-11-20T20:36:03.510Z,2.70
2018-11-20T20:39:03.030Z,2.30
2018-11-20T20:42:02.970Z,2.10
2018-11-20T20:45:09.114Z,2.10
2018-11-20T20:48:14.641Z,2.00
2018-11-20T20:51:07.554Z,1.90
2018-11-20T20:54:13.135Z,1.80
2018-11-20T20:57:19.154Z,1.80
2018-11-20T21:00:19.463Z,1.70
2018-11-20T21:03:17.275Z,1.50
2018-11-20T21:06:19.822Z,1.60
2018-11-20T21:09:19.961Z,1.40
2018-11-20T21:12:20.567Z,1.40
2018-11-20T21:15:20.995Z,1.40
2018-11-20T21:18:20.298Z,1.40
2018-11-20T21:24:25.950Z,1.20
2018-11-20T21:27:25.879Z,1.10
2018-11-20T21:30:29.083Z,1.00
2018-11-20T21:33:29.775Z,1.10
2018-11-20T21:36:19.917Z,1.00
2018-11-20T21:39:20.236Z,0.90
2018-11-20T21:42:20.355Z,1.00
2018-11-20T21:45:20.607Z,1.00
2018-11-20T21:48:12.325Z,0.90
2018-11-20T21:51:09.671Z,0.80
2018-11-20T21:57:00.378Z,0.50
2018-11-20T22:03:03.974Z,0.50
2018-11-20T22:06:04.744Z,0.60
2018-11-20T22:09:04.781Z,0.70
2018-11-20T22:12:04.721Z,0.70
2018-11-20T22:18:07.492Z,0.70
2018-11-20T22:21:13.463Z,0.80
2018-11-20T22:24:13.340Z,0.80
2018-11-20T22:27:13.724Z,0.70
2018-11-20T22:30:13.636Z,0.70
2018-11-20T22:33:14.078Z,0.80
2018-11-20T22:36:14.132Z,0.80
2018-11-20T22:39:13.973Z,0.70
2018-11-20T22:42:19.800Z,0.60
2018-11-20T22:45:19.959Z,0.50
2018-11-20T22:48:19.844Z,0.60
2018-11-20T22:51:22.977Z,0.70
2018-11-20T22:54:17.309Z,0.70
2018-11-20T22:57:05.870Z,0.70
2018-11-20T23:00:12.089Z,0.80
2018-11-20T23:03:15.297Z,0.80
2018-11-20T23:06:15.308Z,0.70
2018-11-20T23:08:56.460Z,0.60
2018-11-20T23:11:37.382Z,0.40
2018-11-20T23:14:17.829Z,0.30
2018-11-20T23:16:58.878Z,0.30
2018-11-20T23:19:39.557Z,0.20
2018-11-20T23:22:20.618Z,0.30
2018-11-20T23:25:01.606Z,0.40
2018-11-20T23:27:42.371Z,0.50
2018-11-20T23:30:23.344Z,0.50
2018-11-20T23:33:04.098Z,0.60
2018-11-20T23:35:44.850Z,0.50
2018-11-20T23:38:25.471Z,0.40
2018-11-20T23:41:06.066Z,0.40
2018-11-20T23:43:47.349Z,0.30
2018-11-20T23:46:28.289Z,0.30
2018-11-20T23:49:09.653Z,0.30
2018-11-20T23:51:49.980Z,0.40
2018-11-20T23:54:31.347Z,0.60
2018-11-20T23:57:11.742Z,0.60
2018-11-20T23:59:52.700Z,0.60
